sensor_id;sensor_type;location;lat;lon;timestamp;pressure;altitude;pressure_sealevel;temperature;humidity
41636;BME280;27623;51.966;4.602;2023-01-31T00:00:44;63861.16;;;6.66;87.24
41636;BME280;27623;51.966;4.602;2023-01-31T00:03:09;63846.91;;;6.58;87.34
41636;BME280;27623;51.966;4.602;2023-01-31T00:05:35;63879.81;;;6.79;86.80
41636;BME280;27623;51.966;4.602;2023-01-31T00:08:00;63847.59;;;6.68;86.81
41636;BME280;27623;51.966;4.602;2023-01-31T00:10:28;63842.91;;;6.51;86.42
41636;BME280;27623;51.966;4.602;2023-01-31T00:12:53;63852.84;;;6.70;86.72
41636;BME280;27623;51.966;4.602;2023-01-31T00:15:19;63859.72;;;6.74;85.91
41636;BME280;27623;51.966;4.602;2023-01-31T00:17:45;63833.50;;;6.62;86.62
41636;BME280;27623;51.966;4.602;2023-01-31T00:20:11;63842.53;;;6.75;87.10
41636;BME280;27623;51.966;4.602;2023-01-31T00:22:36;63841.47;;;6.74;86.96
41636;BME280;27623;51.966;4.602;2023-01-31T00:25:03;63861.91;;;6.76;85.60
41636;BME280;27623;51.966;4.602;2023-01-31T00:27:28;63785.06;;;6.28;86.32
41636;BME280;27623;51.966;4.602;2023-01-31T00:29:54;63789.78;;;6.23;87.19
41636;BME280;27623;51.966;4.602;2023-01-31T00:32:24;63760.34;;;6.00;88.10
41636;BME280;27623;51.966;4.602;2023-01-31T00:34:51;63724.19;;;5.76;89.09
41636;BME280;27623;51.966;4.602;2023-01-31T00:37:18;63714.25;;;5.64;90.45
41636;BME280;27623;51.966;4.602;2023-01-31T00:39:43;63716.78;;;5.57;90.62
41636;BME280;27623;51.966;4.602;2023-01-31T00:42:09;63727.97;;;5.65;91.18
41636;BME280;27623;51.966;4.602;2023-01-31T00:44:34;63726.88;;;5.64;91.24
41636;BME280;27623;51.966;4.602;2023-01-31T00:46:59;63738.44;;;5.70;91.56
41636;BME280;27623;51.966;4.602;2023-01-31T00:49:27;63709.91;;;5.46;92.48
41636;BME280;27623;51.966;4.602;2023-01-31T00:51:52;63751.63;;;5.64;93.40
41636;BME280;27623;51.966;4.602;2023-01-31T00:54:18;63727.97;;;5.86;93.08
41636;BME280;27623;51.966;4.602;2023-01-31T00:56:43;63769.00;;;6.01;91.91
41636;BME280;27623;51.966;4.602;2023-01-31T00:59:09;63803.88;;;6.15;92.17
41636;BME280;27623;51.966;4.602;2023-01-31T01:01:35;63788.50;;;6.12;92.20
41636;BME280;27623;51.966;4.602;2023-01-31T01:04:01;63761.22;;;6.06;93.38
41636;BME280;27623;51.966;4.602;2023-01-31T01:06:27;63794.28;;;6.01;92.88
41636;BME280;27623;51.966;4.602;2023-01-31T01:08:54;63780.38;;;6.12;94.04
41636;BME280;27623;51.966;4.602;2023-01-31T01:11:27;63756.88;;;5.87;94.02
41636;BME280;27623;51.966;4.602;2023-01-31T01:13:53;63759.41;;;5.95;95.11
41636;BME280;27623;51.966;4.602;2023-01-31T01:16:30;63736.47;;;5.85;96.22
41636;BME280;27623;51.966;4.602;2023-01-31T01:18:55;63771.16;;;5.96;96.91
41636;BME280;27623;51.966;4.602;2023-01-31T01:21:24;63740.97;;;5.77;98.30
41636;BME280;27623;51.966;4.602;2023-01-31T01:23:50;63740.66;;;6.01;98.78
41636;BME280;27623;51.966;4.602;2023-01-31T01:26:24;63783.44;;;6.05;100.00
41636;BME280;27623;51.966;4.602;2023-01-31T01:28:51;63762.66;;;6.05;100.00
41636;BME280;27623;51.966;4.602;2023-01-31T01:31:17;63784.19;;;6.01;100.00
41636;BME280;27623;51.966;4.602;2023-01-31T01:33:44;63751.44;;;5.82;100.00
41636;BME280;27623;51.966;4.602;2023-01-31T01:36:15;63754.19;;;5.99;100.00
41636;BME280;27623;51.966;4.602;2023-01-31T01:38:43;63799.34;;;6.01;100.00
41636;BME280;27623;51.966;4.602;2023-01-31T01:41:10;63790.84;;;5.96;100.00
41636;BME280;27623;51.966;4.602;2023-01-31T01:43:46;63781.81;;;5.97;100.00
41636;BME280;27623;51.966;4.602;2023-01-31T01:46:30;63778.75;;;6.10;100.00
41636;BME280;27623;51.966;4.602;2023-01-31T01:49:00;63785.78;;;6.10;100.00
41636;BME280;27623;51.966;4.602;2023-01-31T01:51:28;63838.75;;;6.29;100.00
41636;BME280;27623;51.966;4.602;2023-01-31T01:53:56;63809.28;;;6.20;100.00
41636;BME280;27623;51.966;4.602;2023-01-31T01:56:31;63789.94;;;6.11;100.00
41636;BME280;27623;51.966;4.602;2023-01-31T02:01:33;63787.59;;;6.14;100.00
41636;BME280;27623;51.966;4.602;2023-01-31T02:04:01;63746.22;;;6.08;100.00
41636;BME280;27623;51.966;4.602;2023-01-31T02:06:27;63771.34;;;6.06;100.00
41636;BME280;27623;51.966;4.602;2023-01-31T02:08:53;63773.13;;;6.03;100.00
41636;BME280;27623;51.966;4.602;2023-01-31T02:11:24;63762.31;;;5.93;100.00
41636;BME280;27623;51.966;4.602;2023-01-31T02:13:57;63744.06;;;5.92;100.00
41636;BME280;27623;51.966;4.602;2023-01-31T02:16:24;63738.63;;;5.87;100.00
41636;BME280;27623;51.966;4.602;2023-01-31T02:18:50;63787.94;;;5.91;100.00
41636;BME280;27623;51.966;4.602;2023-01-31T02:41:00;63808.19;;;6.26;100.00
41636;BME280;27623;51.966;4.602;2023-01-31T02:43:44;63788.88;;;6.32;100.00
41636;BME280;27623;51.966;4.602;2023-01-31T02:46:41;63812.72;;;6.33;100.00
41636;BME280;27623;51.966;4.602;2023-01-31T02:49:24;63812.53;;;6.44;100.00
41636;BME280;27623;51.966;4.602;2023-01-31T02:52:17;63857.19;;;6.53;100.00
41636;BME280;27623;51.966;4.602;2023-01-31T02:58:02;63847.06;;;6.53;100.00
41636;BME280;27623;51.966;4.602;2023-01-31T03:00:34;63866.78;;;6.52;100.00
41636;BME280;27623;51.966;4.602;2023-01-31T03:03:07;63821.75;;;6.53;100.00
41636;BME280;27623;51.966;4.602;2023-01-31T03:05:33;63863.16;;;6.59;100.00
41636;BME280;27623;51.966;4.602;2023-01-31T03:08:00;63849.44;;;6.65;100.00
41636;BME280;27623;51.966;4.602;2023-01-31T03:15:50;63855.41;;;6.63;100.00
41636;BME280;27623;51.966;4.602;2023-01-31T03:18:50;63856.09;;;6.73;100.00
41636;BME280;27623;51.966;4.602;2023-01-31T03:21:24;63846.00;;;6.59;100.00
41636;BME280;27623;51.966;4.602;2023-01-31T03:23:54;63848.50;;;6.73;100.00
41636;BME280;27623;51.966;4.602;2023-01-31T03:26:23;63814.34;;;6.63;100.00
41636;BME280;27623;51.966;4.602;2023-01-31T03:28:51;63849.59;;;6.67;100.00
41636;BME280;27623;51.966;4.602;2023-01-31T03:31:28;63838.94;;;6.67;100.00
41636;BME280;27623;51.966;4.602;2023-01-31T03:34:03;63870.94;;;6.68;100.00
41636;BME280;27623;51.966;4.602;2023-01-31T03:36:32;63823.94;;;6.62;100.00
41636;BME280;27623;51.966;4.602;2023-01-31T03:39:10;63838.75;;;6.71;100.00
41636;BME280;27623;51.966;4.602;2023-01-31T03:42:01;63826.66;;;6.58;100.00
41636;BME280;27623;51.966;4.602;2023-01-31T03:50:04;63867.34;;;6.81;100.00
41636;BME280;27623;51.966;4.602;2023-01-31T03:52:35;63825.72;;;6.66;100.00
41636;BME280;27623;51.966;4.602;2023-01-31T03:55:09;63833.69;;;6.50;100.00
41636;BME280;27623;51.966;4.602;2023-01-31T03:57:39;63846.69;;;6.69;100.00
41636;BME280;27623;51.966;4.602;2023-01-31T04:00:09;63865.50;;;6.70;100.00
41636;BME280;27623;51.966;4.602;2023-01-31T04:02:38;63866.97;;;6.62;100.00
41636;BME280;27623;51.966;4.602;2023-01-31T04:05:08;63872.38;;;6.53;100.00
41636;BME280;27623;51.966;4.602;2023-01-31T04:07:36;63834.22;;;6.50;100.00
41636;BME280;27623;51.966;4.602;2023-01-31T04:10:07;63843.63;;;6.40;100.00
41636;BME280;27623;51.966;4.602;2023-01-31T04:12:38;63859.38;;;6.55;100.00
41636;BME280;27623;51.966;4.602;2023-01-31T04:15:05;63851.06;;;6.59;100.00
41636;BME280;27623;51.966;4.602;2023-01-31T04:17:30;63837.66;;;6.56;100.00
41636;BME280;27623;51.966;4.602;2023-01-31T04:19:57;63835.66;;;6.71;100.00
41636;BME280;27623;51.966;4.602;2023-01-31T04:22:23;63863.72;;;6.73;100.00
41636;BME280;27623;51.966;4.602;2023-01-31T04:24:48;63856.81;;;6.69;100.00
41636;BME280;27623;51.966;4.602;2023-01-31T04:27:16;63827.38;;;6.61;100.00
41636;BME280;27623;51.966;4.602;2023-01-31T04:29:42;63844.72;;;6.70;100.00
41636;BME280;27623;51.966;4.602;2023-01-31T04:32:08;63842.19;;;6.55;100.00
41636;BME280;27623;51.966;4.602;2023-01-31T04:34:33;63839.09;;;6.48;100.00
41636;BME280;27623;51.966;4.602;2023-01-31T04:36:59;63842.91;;;6.51;100.00
41636;BME280;27623;51.966;4.602;2023-01-31T04:39:24;63843.09;;;6.61;100.00
41636;BME280;27623;51.966;4.602;2023-01-31T04:41:52;63855.94;;;6.64;100.00
41636;BME280;27623;51.966;4.602;2023-01-31T04:44:17;63845.09;;;6.61;100.00
41636;BME280;27623;51.966;4.602;2023-01-31T04:46:43;63848.34;;;6.64;100.00
41636;BME280;27623;51.966;4.602;2023-01-31T04:49:12;63865.16;;;6.79;100.00
41636;BME280;27623;51.966;4.602;2023-01-31T04:51:38;63857.53;;;6.86;100.00
41636;BME280;27623;51.966;4.602;2023-01-31T04:54:06;63857.38;;;6.55;100.00
41636;BME280;27623;51.966;4.602;2023-01-31T04:56:32;63847.59;;;6.53;100.00
41636;BME280;27623;51.966;4.602;2023-01-31T04:58:58;63858.47;;;6.71;100.00
41636;BME280;27623;51.966;4.602;2023-01-31T05:01:24;63857.75;;;6.61;100.00
41636;BME280;27623;51.966;4.602;2023-01-31T05:03:49;63860.63;;;6.59;100.00
41636;BME280;27623;51.966;4.602;2023-01-31T05:06:18;63846.53;;;6.52;100.00
41636;BME280;27623;51.966;4.602;2023-01-31T05:08:44;63864.44;;;6.62;100.00
41636;BME280;27623;51.966;4.602;2023-01-31T05:11:13;63821.94;;;6.41;100.00
41636;BME280;27623;51.966;4.602;2023-01-31T05:13:38;63844.53;;;6.53;100.00
41636;BME280;27623;51.966;4.602;2023-01-31T05:16:07;63835.16;;;6.42;100.00
41636;BME280;27623;51.966;4.602;2023-01-31T05:18:33;63844.19;;;6.55;100.00
41636;BME280;27623;51.966;4.602;2023-01-31T05:21:00;63883.78;;;6.57;100.00
41636;BME280;27623;51.966;4.602;2023-01-31T05:23:26;63825.56;;;6.42;100.00
41636;BME280;27623;51.966;4.602;2023-01-31T05:25:51;63822.50;;;6.42;100.00
41636;BME280;27623;51.966;4.602;2023-01-31T05:28:17;63824.81;;;6.46;100.00
41636;BME280;27623;51.966;4.602;2023-01-31T05:30:42;63816.69;;;6.46;100.00
41636;BME280;27623;51.966;4.602;2023-01-31T05:33:08;63821.22;;;6.45;100.00
41636;BME280;27623;51.966;4.602;2023-01-31T05:35:34;63857.19;;;6.53;100.00
41636;BME280;27623;51.966;4.602;2023-01-31T05:38:00;63845.97;;;6.38;100.00
41636;BME280;27623;51.966;4.602;2023-01-31T05:40:25;63840.00;;;6.68;100.00
41636;BME280;27623;51.966;4.602;2023-01-31T05:42:57;63842.00;;;6.60;100.00
41636;BME280;27623;51.966;4.602;2023-01-31T05:45:43;63853.03;;;6.51;100.00
41636;BME280;27623;51.966;4.602;2023-01-31T05:48:09;63847.06;;;6.60;100.00
41636;BME280;27623;51.966;4.602;2023-01-31T05:50:34;63871.66;;;6.78;100.00
41636;BME280;27623;51.966;4.602;2023-01-31T05:53:00;63852.31;;;6.77;100.00
41636;BME280;27623;51.966;4.602;2023-01-31T05:55:28;63893.00;;;6.79;100.00
41636;BME280;27623;51.966;4.602;2023-01-31T05:57:53;63857.38;;;6.70;100.00
41636;BME280;27623;51.966;4.602;2023-01-31T06:00:20;63837.66;;;6.70;100.00
41636;BME280;27623;51.966;4.602;2023-01-31T06:02:45;63824.66;;;6.51;100.00
41636;BME280;27623;51.966;4.602;2023-01-31T06:05:12;63840.75;;;6.49;100.00
41636;BME280;27623;51.966;4.602;2023-01-31T06:07:38;63866.22;;;6.66;100.00
41636;BME280;27623;51.966;4.602;2023-01-31T06:10:06;63843.09;;;6.68;100.00
41636;BME280;27623;51.966;4.602;2023-01-31T06:12:34;63822.66;;;6.66;100.00
41636;BME280;27623;51.966;4.602;2023-01-31T06:15:00;63869.13;;;6.78;100.00
41636;BME280;27623;51.966;4.602;2023-01-31T06:17:28;63849.22;;;6.69;100.00
41636;BME280;27623;51.966;4.602;2023-01-31T06:19:54;63844.53;;;6.60;100.00
41636;BME280;27623;51.966;4.602;2023-01-31T06:22:19;63846.19;;;6.62;100.00
41636;BME280;27623;51.966;4.602;2023-01-31T06:24:50;63845.97;;;6.66;100.00
41636;BME280;27623;51.966;4.602;2023-01-31T06:27:16;63844.91;;;6.58;100.00
41636;BME280;27623;51.966;4.602;2023-01-31T06:29:42;63853.94;;;6.71;100.00
41636;BME280;27623;51.966;4.602;2023-01-31T06:32:08;63850.88;;;6.64;100.00
41636;BME280;27623;51.966;4.602;2023-01-31T06:34:34;63858.09;;;6.59;100.00
41636;BME280;27623;51.966;4.602;2023-01-31T06:37:00;63802.22;;;6.56;100.00
41636;BME280;27623;51.966;4.602;2023-01-31T06:39:27;63863.34;;;6.68;100.00
41636;BME280;27623;51.966;4.602;2023-01-31T06:41:53;63823.94;;;6.62;100.00
41636;BME280;27623;51.966;4.602;2023-01-31T06:44:25;63877.44;;;6.74;100.00
41636;BME280;27623;51.966;4.602;2023-01-31T06:46:53;63891.53;;;6.66;100.00
41636;BME280;27623;51.966;4.602;2023-01-31T06:49:18;63884.31;;;6.71;100.00
41636;BME280;27623;51.966;4.602;2023-01-31T06:51:44;63855.75;;;6.75;100.00
41636;BME280;27623;51.966;4.602;2023-01-31T06:54:09;63881.44;;;6.73;100.00
41636;BME280;27623;51.966;4.602;2023-01-31T06:56:35;63861.34;;;6.69;100.00
41636;BME280;27623;51.966;4.602;2023-01-31T06:59:00;63876.91;;;6.81;100.00
41636;BME280;27623;51.966;4.602;2023-01-31T07:01:26;63854.47;;;6.79;100.00
41636;BME280;27623;51.966;4.602;2023-01-31T07:03:54;63891.75;;;6.83;100.00
41636;BME280;27623;51.966;4.602;2023-01-31T07:06:22;63841.63;;;6.69;100.00
41636;BME280;27623;51.966;4.602;2023-01-31T07:08:47;63848.34;;;6.71;100.00
41636;BME280;27623;51.966;4.602;2023-01-31T07:11:13;63845.25;;;6.77;100.00
41636;BME280;27623;51.966;4.602;2023-01-31T07:13:38;63841.47;;;6.67;100.00
41636;BME280;27623;51.966;4.602;2023-01-31T07:16:06;63909.28;;;6.87;100.00
41636;BME280;27623;51.966;4.602;2023-01-31T07:18:32;63890.28;;;6.91;100.00
41636;BME280;27623;51.966;4.602;2023-01-31T07:20:57;63884.88;;;6.79;100.00
41636;BME280;27623;51.966;4.602;2023-01-31T07:23:22;63876.72;;;6.78;100.00
41636;BME280;27623;51.966;4.602;2023-01-31T07:25:48;63873.47;;;6.82;100.00
41636;BME280;27623;51.966;4.602;2023-01-31T07:28:14;63880.00;;;6.81;100.00
41636;BME280;27623;51.966;4.602;2023-01-31T07:30:39;63895.72;;;6.82;100.00
41636;BME280;27623;51.966;4.602;2023-01-31T07:33:09;63898.97;;;6.71;100.00
41636;BME280;27623;51.966;4.602;2023-01-31T07:35:36;63898.06;;;6.86;100.00
41636;BME280;27623;51.966;4.602;2023-01-31T07:38:02;63876.56;;;6.83;100.00
41636;BME280;27623;51.966;4.602;2023-01-31T07:40:27;63857.19;;;6.81;100.00
41636;BME280;27623;51.966;4.602;2023-01-31T07:43:00;63872.75;;;6.94;100.00
41636;BME280;27623;51.966;4.602;2023-01-31T07:45:26;63859.72;;;6.88;100.00
41636;BME280;27623;51.966;4.602;2023-01-31T07:47:52;63894.44;;;6.93;100.00
41636;BME280;27623;51.966;4.602;2023-01-31T07:50:17;63914.00;;;6.97;100.00
41636;BME280;27623;51.966;4.602;2023-01-31T07:52:46;63879.63;;;7.05;100.00
41636;BME280;27623;51.966;4.602;2023-01-31T07:55:13;63903.88;;;6.97;100.00
41636;BME280;27623;51.966;4.602;2023-01-31T07:57:41;63880.72;;;6.84;100.00
41636;BME280;27623;51.966;4.602;2023-01-31T08:00:07;63911.09;;;6.99;100.00
41636;BME280;27623;51.966;4.602;2023-01-31T08:02:52;63890.31;;;7.05;100.00
41636;BME280;27623;51.966;4.602;2023-01-31T08:05:36;63898.44;;;7.06;100.00
41636;BME280;27623;51.966;4.602;2023-01-31T08:08:02;63913.63;;;7.13;100.00
41636;BME280;27623;51.966;4.602;2023-01-31T08:10:37;63912.72;;;6.93;100.00
41636;BME280;27623;51.966;4.602;2023-01-31T08:13:02;63880.34;;;6.94;100.00
41636;BME280;27623;51.966;4.602;2023-01-31T08:15:28;63850.69;;;6.97;100.00
41636;BME280;27623;51.966;4.602;2023-01-31T08:17:54;63909.47;;;7.04;100.00
41636;BME280;27623;51.966;4.602;2023-01-31T08:20:20;63899.50;;;7.14;100.00
41636;BME280;27623;51.966;4.602;2023-01-31T08:22:47;63912.00;;;7.04;100.00
41636;BME280;27623;51.966;4.602;2023-01-31T08:25:13;63880.00;;;6.81;100.00
41636;BME280;27623;51.966;4.602;2023-01-31T08:27:40;63890.28;;;6.91;100.00
41636;BME280;27623;51.966;4.602;2023-01-31T08:30:07;63879.63;;;6.98;100.00
41636;BME280;27623;51.966;4.602;2023-01-31T08:32:34;63893.19;;;6.96;100.00
41636;BME280;27623;51.966;4.602;2023-01-31T08:35:00;63885.22;;;6.77;100.00
41636;BME280;27623;51.966;4.602;2023-01-31T08:37:28;63856.47;;;6.71;100.00
41636;BME280;27623;51.966;4.602;2023-01-31T08:39:55;63902.41;;;6.98;100.00
41636;BME280;27623;51.966;4.602;2023-01-31T08:42:21;63916.34;;;7.08;100.00
41636;BME280;27623;51.966;4.602;2023-01-31T08:44:47;63860.81;;;6.89;100.00
41636;BME280;27623;51.966;4.602;2023-01-31T08:47:12;63894.09;;;6.87;100.00
41636;BME280;27623;51.966;4.602;2023-01-31T08:49:38;63882.72;;;6.84;100.00
41636;BME280;27623;51.966;4.602;2023-01-31T08:52:05;63903.31;;;7.03;100.00
41636;BME280;27623;51.966;4.602;2023-01-31T08:54:30;63887.41;;;6.93;100.00
41636;BME280;27623;51.966;4.602;2023-01-31T08:56:56;63895.53;;;7.01;100.00
41636;BME280;27623;51.966;4.602;2023-01-31T08:59:25;63897.72;;;6.96;100.00
41636;BME280;27623;51.966;4.602;2023-01-31T09:01:50;63898.06;;;6.94;100.00
41636;BME280;27623;51.966;4.602;2023-01-31T09:04:16;63895.53;;;7.01;100.00
41636;BME280;27623;51.966;4.602;2023-01-31T09:06:41;63895.53;;;7.08;100.00
41636;BME280;27623;51.966;4.602;2023-01-31T09:09:07;63926.66;;;6.97;100.00
41636;BME280;27623;51.966;4.602;2023-01-31T09:11:33;63891.56;;;7.02;100.00
41636;BME280;27623;51.966;4.602;2023-01-31T09:14:00;63939.16;;;7.22;100.00
41636;BME280;27623;51.966;4.602;2023-01-31T09:16:25;63900.97;;;7.06;100.00
41636;BME280;27623;51.966;4.602;2023-01-31T09:18:51;63878.69;;;7.20;100.00
41636;BME280;27623;51.966;4.602;2023-01-31T09:21:19;63932.28;;;7.18;100.00
41636;BME280;27623;51.966;4.602;2023-01-31T09:23:46;63910.19;;;7.21;100.00
41636;BME280;27623;51.966;4.602;2023-01-31T09:26:14;63937.69;;;7.31;100.00
41636;BME280;27623;51.966;4.602;2023-01-31T09:28:40;63933.72;;;7.32;100.00
41636;BME280;27623;51.966;4.602;2023-01-31T09:31:12;63935.16;;;7.38;100.00
41636;BME280;27623;51.966;4.602;2023-01-31T09:33:39;63985.66;;;7.49;100.00
41636;BME280;27623;51.966;4.602;2023-01-31T09:36:06;63971.56;;;7.65;100.00
41636;BME280;27623;51.966;4.602;2023-01-31T09:38:33;63978.25;;;7.66;100.00
41636;BME280;27623;51.966;4.602;2023-01-31T09:41:00;63960.31;;;7.64;100.00
41636;BME280;27623;51.966;4.602;2023-01-31T09:43:35;63994.91;;;7.72;100.00
41636;BME280;27623;51.966;4.602;2023-01-31T09:46:04;63996.91;;;7.79;100.00
41636;BME280;27623;51.966;4.602;2023-01-31T09:48:33;63985.47;;;7.75;100.00
41636;BME280;27623;51.966;4.602;2023-01-31T09:51:04;63973.72;;;7.74;100.00
41636;BME280;27623;51.966;4.602;2023-01-31T09:53:34;63970.28;;;7.61;100.00
41636;BME280;27623;51.966;4.602;2023-01-31T10:06:59;63950.53;;;7.69;100.00
41636;BME280;27623;51.966;4.602;2023-01-31T10:09:32;63985.13;;;7.70;100.00
41636;BME280;27623;51.966;4.602;2023-01-31T10:12:06;63987.13;;;7.63;100.00
41636;BME280;27623;51.966;4.602;2023-01-31T10:14:46;63972.81;;;7.75;100.00
41636;BME280;27623;51.966;4.602;2023-01-31T10:17:37;63973.16;;;7.73;100.00
41636;BME280;27623;51.966;4.602;2023-01-31T10:22:45;64047.97;;;7.91;100.00
41636;BME280;27623;51.966;4.602;2023-01-31T10:27:59;64024.03;;;8.11;100.00
41636;BME280;27623;51.966;4.602;2023-01-31T10:30:42;64026.97;;;8.02;100.00
41636;BME280;27623;51.966;4.602;2023-01-31T10:33:24;64008.66;;;7.94;100.00
41636;BME280;27623;51.966;4.602;2023-01-31T10:35:55;64026.97;;;8.02;100.00
41636;BME280;27623;51.966;4.602;2023-01-31T10:38:32;64042.19;;;7.95;100.00
41636;BME280;27623;51.966;4.602;2023-01-31T10:41:06;63985.13;;;7.84;100.00
41636;BME280;27623;51.966;4.602;2023-01-31T10:43:38;64009.75;;;7.96;100.00
41636;BME280;27623;51.966;4.602;2023-01-31T10:46:09;64003.03;;;8.01;100.00
41636;BME280;27623;51.966;4.602;2023-01-31T10:48:35;64030.22;;;8.12;100.00
41636;BME280;27623;51.966;4.602;2023-01-31T10:56:46;64025.69;;;8.06;100.00
41636;BME280;27623;51.966;4.602;2023-01-31T10:59:24;64032.19;;;8.12;100.00
41636;BME280;27623;51.966;4.602;2023-01-31T11:01:50;64006.84;;;8.05;100.00
41636;BME280;27623;51.966;4.602;2023-01-31T11:04:29;64040.00;;;8.14;100.00
41636;BME280;27623;51.966;4.602;2023-01-31T11:06:57;64037.28;;;8.12;100.00
41636;BME280;27623;51.966;4.602;2023-01-31T11:09:26;64015.91;;;8.04;100.00
41636;BME280;27623;51.966;4.602;2023-01-31T11:11:59;64039.28;;;8.11;100.00
41636;BME280;27623;51.966;4.602;2023-01-31T11:14:25;64063.94;;;8.15;100.00
41636;BME280;27623;51.966;4.602;2023-01-31T11:17:00;64046.53;;;8.20;100.00
41636;BME280;27623;51.966;4.602;2023-01-31T11:19:37;64028.94;;;8.23;100.00
41636;BME280;27623;51.966;4.602;2023-01-31T11:22:06;64004.09;;;8.23;100.00
41636;BME280;27623;51.966;4.602;2023-01-31T11:24:33;64066.28;;;8.27;100.00
41636;BME280;27623;51.966;4.602;2023-01-31T11:27:20;64034.75;;;8.19;100.00
41636;BME280;27623;51.966;4.602;2023-01-31T11:29:49;64027.31;;;8.21;100.00
41636;BME280;27623;51.966;4.602;2023-01-31T11:32:20;64070.28;;;8.26;100.00
41636;BME280;27623;51.966;4.602;2023-01-31T11:35:21;64068.09;;;8.24;100.00
41636;BME280;27623;51.966;4.602;2023-01-31T11:40:40;64032.38;;;8.21;100.00
41636;BME280;27623;51.966;4.602;2023-01-31T11:43:24;64033.47;;;8.30;100.00
41636;BME280;27623;51.966;4.602;2023-01-31T11:45:56;64045.09;;;8.36;100.00
41636;BME280;27623;51.966;4.602;2023-01-31T11:48:26;64028.94;;;8.23;100.00
41636;BME280;27623;51.966;4.602;2023-01-31T11:51:02;64024.94;;;8.24;100.00
41636;BME280;27623;51.966;4.602;2023-01-31T11:53:44;64030.41;;;8.29;100.00
41636;BME280;27623;51.966;4.602;2023-01-31T11:56:18;64064.13;;;8.39;100.00
41636;BME280;27623;51.966;4.602;2023-01-31T11:58:49;64047.06;;;8.35;100.00
41636;BME280;27623;51.966;4.602;2023-01-31T12:01:22;64070.47;;;8.36;100.00
41636;BME280;27623;51.966;4.602;2023-01-31T12:03:58;64043.81;;;8.39;100.00
41636;BME280;27623;51.966;4.602;2023-01-31T12:08:58;64081.72;;;8.37;100.00
41636;BME280;27623;51.966;4.602;2023-01-31T12:12:09;64068.28;;;8.41;100.00
41636;BME280;27623;51.966;4.602;2023-01-31T12:14:38;64028.75;;;8.42;100.00
41636;BME280;27623;51.966;4.602;2023-01-31T12:17:05;64084.59;;;8.56;100.00
41636;BME280;27623;51.966;4.602;2023-01-31T12:22:18;64060.50;;;8.38;100.00
41636;BME280;27623;51.966;4.602;2023-01-31T12:25:06;64090.97;;;8.38;100.00
41636;BME280;27623;51.966;4.602;2023-01-31T12:27:48;64071.75;;;8.46;100.00
41636;BME280;27623;51.966;4.602;2023-01-31T12:38:15;64104.19;;;8.60;100.00
41636;BME280;27623;51.966;4.602;2023-01-31T12:47:02;64080.25;;;8.59;100.00
41636;BME280;27623;51.966;4.602;2023-01-31T12:52:46;64075.88;;;8.62;100.00
41636;BME280;27623;51.966;4.602;2023-01-31T13:08:28;64081.31;;;8.74;100.00
41636;BME280;27623;51.966;4.602;2023-01-31T13:13:32;64124.50;;;8.88;100.00
41636;BME280;27623;51.966;4.602;2023-01-31T13:16:13;64169.09;;;9.23;100.00
41636;BME280;27623;51.966;4.602;2023-01-31T13:18:46;64138.59;;;9.23;100.00
41636;BME280;27623;51.966;4.602;2023-01-31T13:21:16;64167.66;;;9.17;100.00
41636;BME280;27623;51.966;4.602;2023-01-31T13:23:49;64223.56;;;9.52;100.00
41636;BME280;27623;51.966;4.602;2023-01-31T13:26:22;64195.59;;;9.45;100.00
41636;BME280;27623;51.966;4.602;2023-01-31T13:29:18;64255.69;;;9.89;100.00
41636;BME280;27623;51.966;4.602;2023-01-31T13:31:54;64231.88;;;9.84;100.00
41636;BME280;27623;51.966;4.602;2023-01-31T13:34:28;64238.03;;;9.99;100.00
41636;BME280;27623;51.966;4.602;2023-01-31T13:37:02;64262.38;;;10.05;100.00
41636;BME280;27623;51.966;4.602;2023-01-31T13:39:41;64250.19;;;10.13;100.00
41636;BME280;27623;51.966;4.602;2023-01-31T13:42:13;64250.78;;;9.92;100.00
41636;BME280;27623;51.966;4.602;2023-01-31T13:44:39;64209.88;;;9.82;100.00
41636;BME280;27623;51.966;4.602;2023-01-31T13:47:24;64254.78;;;9.77;100.00
41636;BME280;27623;51.966;4.602;2023-01-31T13:49:55;64211.91;;;9.75;100.00
41636;BME280;27623;51.966;4.602;2023-01-31T13:52:33;64210.63;;;9.64;100.00
41636;BME280;27623;51.966;4.602;2023-01-31T13:55:08;64211.91;;;9.60;100.00
41636;BME280;27623;51.966;4.602;2023-01-31T13:57:44;64181.22;;;9.51;100.00
41636;BME280;27623;51.966;4.602;2023-01-31T14:10:58;64229.41;;;9.34;100.00
41636;BME280;27623;51.966;4.602;2023-01-31T14:15:58;64172.91;;;9.34;100.00
41636;BME280;27623;51.966;4.602;2023-01-31T14:18:39;64196.34;;;9.34;100.00
41636;BME280;27623;51.966;4.602;2023-01-31T14:23:53;64252.78;;;9.84;100.00
41636;BME280;27623;51.966;4.602;2023-01-31T14:26:33;64271.75;;;10.59;99.30
41636;BME280;27623;51.966;4.602;2023-01-31T14:29:07;64425.41;;;11.28;94.18
41636;BME280;27623;51.966;4.602;2023-01-31T14:31:33;64403.78;;;11.18;91.83
41636;BME280;27623;51.966;4.602;2023-01-31T14:33:59;64342.44;;;11.01;93.69
41636;BME280;27623;51.966;4.602;2023-01-31T14:37:13;64391.72;;;11.28;93.07
41636;BME280;27623;51.966;4.602;2023-01-31T14:39:19;64459.72;;;11.89;89.91
41636;BME280;27623;51.966;4.602;2023-01-31T14:58:02;64323.94;;;10.70;90.01
41636;BME280;27623;51.966;4.602;2023-01-31T15:00:32;64324.50;;;10.70;91.63
41636;BME280;27623;51.966;4.602;2023-01-31T15:03:06;64305.59;;;10.48;92.31
41636;BME280;27623;51.966;4.602;2023-01-31T15:13:36;64243.09;;;10.13;95.13
41636;BME280;27623;51.966;4.602;2023-01-31T15:16:09;64262.72;;;10.24;95.13
41636;BME280;27623;51.966;4.602;2023-01-31T15:18:36;64348.31;;;10.76;93.03
41636;BME280;27623;51.966;4.602;2023-01-31T15:21:04;64321.03;;;10.64;92.55
41636;BME280;27623;51.966;4.602;2023-01-31T15:23:36;64298.13;;;10.57;92.83
41636;BME280;27623;51.966;4.602;2023-01-31T15:26:04;64313.09;;;10.38;94.72
41636;BME280;27623;51.966;4.602;2023-01-31T15:28:35;64291.63;;;10.30;95.33
41636;BME280;27623;51.966;4.602;2023-01-31T15:31:16;64289.81;;;10.19;95.65
41636;BME280;27623;51.966;4.602;2023-01-31T15:33:50;64254.00;;;10.09;96.12
41636;BME280;27623;51.966;4.602;2023-01-31T15:36:40;64285.81;;;10.13;95.22